Lawrenceville, GA (30042)

7:56 PM EDT on September 18, 2014 (GMT -0400)
Gloster | Change Station
CLOSE
Current Station
Personal Weather Station
Location: Lawrenceville, GA
Elevation: 997 ft
Nearby Weather Stations

Elev 997 ft 33.92 °N, 84.07 °W | Updated 19 minutes ago

Partly Cloudy
Partly Cloudy
77.7 °F
Feels Like 80 °F
N
0.0
Wind Variable Wind from SSW

Today
High -- | Low -- °F
--% Chance of Precip.
Yesterday
High -- | Low -- °F
Precip. -- in
7:21 AM 7:38 PM
Waning Crescent, 23% visible
Pressure 29.90 in
Visibility 10.0 miles
Clouds Clear
Heat Index 80 °F
Dew Point 69 °F
Humidity 74%
Rainfall 0.00 in
Snow Depth Not available.
UV 0 out of 12
Pollen 8.60 out of 12
Ozone Good
PM2.5 Moderate
Flu Activity Not available.
METAR KPDK 182253Z 00000KT 10SM CLR 27/16 A2994 RMK AO2 SLP125 T02670156

More Conditions Fewer Conditions

Pressure 29.90 in
Visibility 10.0 miles
Clouds Clear
Heat Index 80 °F
Dew Point 69 °F
Humidity 74%
Rainfall 0.00 in
Snow Depth Not available.
UV 0 out of 12
Pollen 8.60 out of 12
Ozone Good
PM2.5 Moderate
Flu Activity Not available.
METAR KPDK 182253Z 00000KT 10SM CLR 27/16 A2994 RMK AO2 SLP125 T02670156

More Conditions Fewer Conditions

10-Day Weather Forecast

Almanac

Astronomy

Sep. 18, 2014 Rise Set
Actual Time 7:21 AM EDT 7:38 PM EDT
Civil Twilight 6:56 AM EDT 8:03 PM EDT
Nautical Twilight 6:27 AM EDT 8:32 PM EDT
Astronomical Twilight 5:57 AM EDT 9:02 PM EDT
Moon 2:23 AM EDT 4:19 PM EDT
Length of Visible Light 13h 06m
Length of Day
12h 17m
Tomorrow will be 2m 6s shorter.
Waning Crescent, 23% of the Moon is Illuminated
Today
Waning Crescent
Sep 24
New
Oct 1
First Quarter
Oct 8
Full
Oct 15
Last Quarter

Today's Extremes

State Highs State Lows

Community

WunderPhotos

Upload Photos

1,754,489 photos uploaded!

WunderBlogs® & News

Nearby

Air Quality

  Air Quality AQ Index Pollutant
Yesterday Good
OZONE
Yesterday Good
PM10
Current Moderate
PM2.5
Current Good
OZONE
Thursday Moderate
PM2.5
Thursday Good
OZONE
Friday Good
OZONE
Friday Good
PM2.5

Snow Depth

Station Depth Elevation
No new snow has been reported.

Earthquake Activity

City Distance Mag. Time & Date
No recent earthquake activity has been reported nearby.
Minimum magnitude displayed is 2.5.

Coastal Water Temperatures

Place Temperature
No Stations Reporting

Nearby Weather Stations